Terminal Aerodrome Forecast
Issued by NWS

Home | Current Version | Previous Version | Text Only | Print | Product List | Glossary Off
Versions: 1 2 3 4 5 6 7 8 9 10 11 12 13 14 15 16 17 18 19 20 21

555
FTUS43 KFGF 100442 AAA
TAFBJI
TAF AMD
KBJI 100442Z 1005/1024 16003KT P6SM OVC027
      TEMPO 1005/1007 SCT027
     FM100700 29006KT P6SM OVC025
     FM100800 30007KT P6SM OVC015
     FM101700 30006KT P6SM BKN010=

USA.gov is the U.S. government's official web portal to all federal, state and local government web resources and services.